Time;durP1;ratioP1;P1;durP2;ratioP2;P2;SDS_P1;SDS_P2;PMS_P1;PMS_P2;Temp;Humidity;BMP_temperature;BMP_pressure;BME280_temperature;BME280_humidity;BME280_pressure;Samples;Min_cycle;Max_cycle;Signal;HPM_P1;HPM_P2
2021/04/02 00:03:38;;;;;;;4.17;2.77;;;20.90;30.60;;;;;;8463184;28;20124;-58
2021/04/02 00:07:39;;;;;;;5.60;3.63;;;20.90;30.60;;;;;;8458718;28;20041;-58
2021/04/02 00:11:43;;;;;;;6.22;3.53;;;20.90;30.60;;;;;;8457132;28;20043;-59
2021/04/02 00:15:45;;;;;;;5.38;3.25;;;20.90;30.60;;;;;;8458532;28;20039;-58
2021/04/02 00:19:45;;;;;;;5.05;3.15;;;20.90;30.60;;;;;;8458883;28;20082;-58
2021/04/02 00:23:46;;;;;;;5.07;3.10;;;20.90;30.60;;;;;;8460495;28;20059;-58
2021/04/02 00:27:46;;;;;;;6.67;3.23;;;20.90;30.60;;;;;;8457952;28;20043;-59
2021/04/02 00:31:47;;;;;;;5.73;3.20;;;20.90;30.60;;;;;;8457988;28;20047;-58
2021/04/02 00:35:48;;;;;;;3.35;2.63;;;20.90;30.60;;;;;;8462880;28;20111;-59
2021/04/02 00:39:48;;;;;;;5.30;3.00;;;20.90;30.70;;;;;;8496288;28;20032;-58
2021/04/02 00:43:51;;;;;;;4.30;3.13;;;20.80;30.60;;;;;;8459737;28;20507;-58
2021/04/02 00:47:53;;;;;;;3.95;3.30;;;20.80;30.60;;;;;;8455616;28;20020;-58
2021/04/02 00:51:54;;;;;;;5.30;3.25;;;20.80;30.70;;;;;;8457737;28;20410;-58
2021/04/02 00:55:55;;;;;;;4.17;3.13;;;20.90;30.70;;;;;;8457178;28;20032;-58
2021/04/02 00:59:55;;;;;;;5.25;2.88;;;20.90;30.70;;;;;;8460026;28;20107;-58
2021/04/02 01:03:56;;;;;;;4.60;2.97;;;20.80;30.70;;;;;;8458194;28;20028;-58
2021/04/02 01:08:00;;;;;;;4.47;3.23;;;20.80;30.60;;;;;;8457182;28;20507;-58
2021/04/02 01:12:01;;;;;;;6.15;3.10;;;20.80;30.60;;;;;;8464072;27;20055;-58
2021/04/02 01:16:08;;;;;;;6.90;2.80;;;20.80;30.60;;;;;;8502120;27;20080;-58
2021/04/02 01:20:09;;;;;;;5.00;3.08;;;20.80;30.70;;;;;;8464291;27;20040;-58
2021/04/02 01:24:22;;;;;;;4.63;3.38;;;20.70;30.60;;;;;;8463255;28;20050;-58
2021/04/02 01:28:54;;;;;;;3.17;2.67;;;20.80;30.70;;;;;;8463394;28;20089;-58
2021/04/02 01:32:55;;;;;;;3.70;2.95;;;20.70;30.60;;;;;;8442903;28;20029;-58
2021/04/02 01:37:01;;;;;;;4.78;3.45;;;20.70;30.60;;;;;;8467431;28;20046;-58
2021/04/02 01:41:06;;;;;;;5.30;3.00;;;20.70;30.60;;;;;;8462786;28;20373;-58
2021/04/02 01:45:10;;;;;;;4.18;3.17;;;20.70;30.60;;;;;;8461080;28;20158;-58
2021/04/02 01:49:11;;;;;;;4.15;2.80;;;20.70;30.60;;;;;;8462297;28;20051;-59
2021/04/02 01:53:13;;;;;;;4.10;2.78;;;20.70;30.60;;;;;;8460395;28;20378;-58
2021/04/02 01:57:15;;;;;;;4.38;3.20;;;20.70;30.60;;;;;;8466824;28;20032;-58
2021/04/02 02:01:18;;;;;;;6.72;3.38;;;20.70;30.60;;;;;;8462707;28;20039;-58
2021/04/02 02:05:19;;;;;;;5.63;3.38;;;20.70;30.60;;;;;;8460315;28;20464;-58
2021/04/02 02:09:36;;;;;;;6.75;3.13;;;20.70;30.70;;;;;;8462065;28;20126;-58
2021/04/02 02:13:40;;;;;;;4.15;2.95;;;20.70;30.70;;;;;;8466373;28;20035;-58
2021/04/02 02:17:48;;;;;;;5.20;3.70;;;20.70;30.70;;;;;;8460762;28;20032;-58
2021/04/02 02:21:51;;;;;;;4.32;2.90;;;20.60;30.70;;;;;;8461457;28;20130;-58
2021/04/02 02:25:52;;;;;;;4.90;3.67;;;20.60;30.70;;;;;;8460979;28;20059;-58
2021/04/02 02:29:53;;;;;;;4.17;3.40;;;20.60;30.70;;;;;;8459456;28;20045;-58
2021/04/02 02:33:53;;;;;;;4.53;2.88;;;20.60;30.70;;;;;;8465512;28;20137;-58
2021/04/02 02:37:57;;;;;;;4.60;3.07;;;20.60;30.70;;;;;;8489164;27;20077;-58
2021/04/02 02:42:01;;;;;;;4.90;3.35;;;20.60;30.70;;;;;;8473674;27;20055;-58
2021/04/02 02:46:03;;;;;;;4.10;2.75;;;20.60;30.70;;;;;;8460944;28;20384;-58
2021/04/02 02:50:07;;;;;;;3.60;2.72;;;20.60;30.70;;;;;;8464691;28;20512;-58
2021/04/02 02:54:13;;;;;;;4.15;3.05;;;20.60;30.80;;;;;;8461874;28;20035;-59
2021/04/02 02:58:17;;;;;;;5.35;3.03;;;20.60;30.80;;;;;;8460943;27;20036;-58
2021/04/02 03:02:18;;;;;;;5.97;3.25;;;20.50;30.80;;;;;;8472846;27;20036;-58
2021/04/02 03:06:21;;;;;;;4.57;3.20;;;20.60;30.80;;;;;;8488925;27;20081;-58
2021/04/02 03:10:24;;;;;;;8.25;3.20;;;20.50;30.80;;;;;;8464260;28;20043;-59
2021/04/02 03:14:25;;;;;;;6.18;3.28;;;20.50;30.80;;;;;;8458392;28;20046;-59
2021/04/02 03:18:27;;;;;;;4.32;2.88;;;20.50;30.80;;;;;;8459999;28;20508;-59
2021/04/02 03:22:29;;;;;;;5.28;3.17;;;20.50;30.80;;;;;;8459159;28;20563;-59
2021/04/02 03:26:30;;;;;;;4.32;3.30;;;20.50;30.80;;;;;;8460818;28;20032;-59
2021/04/02 03:30:31;;;;;;;5.88;3.38;;;20.60;30.90;;;;;;8461267;28;20039;-60
2021/04/02 03:34:33;;;;;;;;;;;20.60;30.80;;;;;;8459244;27;20499;-58
2021/04/02 03:38:39;;;;;;;3.50;3.13;;;20.60;30.70;;;;;;8457208;28;19912;-60
2021/04/02 03:42:43;;;;;;;8.10;3.55;;;20.60;30.60;;;;;;8458977;28;20119;-58
2021/04/02 03:46:44;;;;;;;6.40;3.83;;;20.60;30.60;;;;;;8463466;28;20388;-59
2021/04/02 03:50:52;;;;;;;4.93;3.03;;;20.60;30.60;;;;;;8456900;28;20427;-59
2021/04/02 03:54:54;;;;;;;4.03;2.88;;;20.60;30.60;;;;;;8458413;28;20040;-59
2021/04/02 03:58:56;;;;;;;5.38;3.50;;;20.60;30.60;;;;;;8458520;28;20500;-59
2021/04/02 04:02:58;;;;;;;4.15;3.38;;;20.60;30.60;;;;;;8458522;28;20038;-59
2021/04/02 04:07:01;;;;;;;5.78;3.30;;;20.70;30.60;;;;;;8461877;28;20031;-59
2021/04/02 04:11:03;;;;;;;6.45;3.60;;;20.60;30.60;;;;;;8457721;28;20480;-59
2021/04/02 04:15:04;;;;;;;6.00;3.28;;;20.70;30.70;;;;;;8457012;28;20043;-59
2021/04/02 04:19:06;;;;;;;3.95;3.10;;;20.70;30.70;;;;;;8458347;28;20113;-60
2021/04/02 04:23:07;;;;;;;4.90;2.97;;;20.70;30.70;;;;;;8461354;28;20039;-57
2021/04/02 04:27:09;;;;;;;5.47;3.30;;;20.60;30.70;;;;;;8458386;28;20036;-60
2021/04/02 04:31:10;;;;;;;5.50;3.38;;;20.70;30.70;;;;;;8457905;28;20493;-55
2021/04/02 04:35:14;;;;;;;6.65;3.95;;;20.60;30.70;;;;;;8455846;28;20477;-57
2021/04/02 04:39:16;;;;;;;5.05;3.20;;;20.60;30.70;;;;;;8462312;28;20040;-57
2021/04/02 04:43:17;;;;;;;;;;;20.60;30.70;;;;;;8457798;28;20092;-57
2021/04/02 04:47:18;;;;;;;5.57;3.25;;;20.60;30.70;;;;;;8462305;28;20038;-57
2021/04/02 04:51:21;;;;;;;5.53;3.33;;;20.60;30.80;;;;;;8464780;28;20093;-57
2021/04/02 04:55:23;;;;;;;5.03;3.17;;;20.60;30.80;;;;;;8464780;28;20036;-57
2021/04/02 04:59:23;;;;;;;4.53;3.10;;;20.60;30.80;;;;;;8466975;28;20046;-58
2021/04/02 05:03:27;;;;;;;5.77;3.60;;;20.60;30.80;;;;;;8464104;28;20032;-58
2021/04/02 05:07:31;;;;;;;4.85;3.20;;;20.60;30.80;;;;;;8481603;27;20303;-58
2021/04/02 05:11:35;;;;;;;4.30;2.92;;;20.50;30.80;;;;;;8487374;27;20036;-60
2021/04/02 05:15:36;;;;;;;5.50;3.95;;;20.50;30.80;;;;;;8468058;28;20488;-57
2021/04/02 05:19:39;;;;;;;;;;;20.50;30.80;;;;;;8463793;28;20080;-56
2021/04/02 05:23:40;;;;;;;5.90;3.45;;;20.50;30.80;;;;;;8461888;27;19980;-57
2021/04/02 05:27:40;;;;;;;7.27;3.60;;;20.50;30.80;;;;;;8463136;28;20023;-57
2021/04/02 05:31:43;;;;;;;5.13;3.53;;;20.50;30.80;;;;;;8462774;28;20055;-59
2021/04/02 05:35:43;;;;;;;4.38;3.13;;;20.50;30.90;;;;;;8465568;28;20032;-57
2021/04/02 05:39:44;;;;;;;5.80;3.20;;;20.50;30.90;;;;;;8462945;28;20510;-57
2021/04/02 05:44:06;;;;;;;5.80;3.30;;;20.50;30.90;;;;;;8462999;27;20031;-57
2021/04/02 05:48:09;;;;;;;5.30;3.42;;;20.40;30.80;;;;;;8461036;27;20122;-58
2021/04/02 05:52:11;;;;;;;7.93;3.53;;;20.40;30.90;;;;;;8463847;28;20501;-58
2021/04/02 05:56:12;;;;;;;5.50;3.35;;;20.40;30.90;;;;;;8462898;28;20028;-57
2021/04/02 06:00:14;;;;;;;6.70;3.63;;;20.40;30.80;;;;;;8462801;27;20040;-59
2021/04/02 06:04:15;;;;;;;5.97;3.50;;;20.40;30.80;;;;;;8462557;27;20109;-58
2021/04/02 06:08:18;;;;;;;4.53;3.30;;;20.40;30.90;;;;;;8460315;28;20484;-58
2021/04/02 06:12:26;;;;;;;7.97;3.63;;;20.40;30.90;;;;;;8466277;28;20103;-57
2021/04/02 06:16:26;;;;;;;5.85;3.20;;;20.40;30.80;;;;;;8461828;28;20076;-56
2021/04/02 06:20:29;;;;;;;6.50;3.63;;;20.40;30.80;;;;;;8460670;28;20036;-57
2021/04/02 06:24:43;;;;;;;4.75;3.25;;;20.50;30.70;;;;;;8461474;28;20047;-57
2021/04/02 06:28:44;;;;;;;6.68;3.53;;;20.50;30.70;;;;;;8461134;28;20040;-58
2021/04/02 06:32:51;;;;;;;5.53;3.57;;;20.60;30.50;;;;;;8464309;28;20103;-58
2021/04/02 06:36:58;;;;;;;4.55;3.53;;;20.70;30.40;;;;;;8461133;28;20276;-57
2021/04/02 06:41:01;;;;;;;6.07;3.60;;;20.80;30.30;;;;;;8461167;28;20397;-59
2021/04/02 06:45:06;;;;;;;5.03;3.45;;;20.80;30.20;;;;;;8458652;28;20034;-59
2021/04/02 06:49:19;;;;;;;4.07;3.42;;;20.80;30.20;;;;;;8464938;28;20044;-57
2021/04/02 06:53:21;;;;;;;5.35;3.13;;;20.80;30.20;;;;;;8460082;28;20040;-58
2021/04/02 06:57:24;;;;;;;6.60;3.50;;;20.80;30.20;;;;;;8460870;28;20124;-58
2021/04/02 07:01:27;;;;;;;6.40;4.00;;;20.80;30.20;;;;;;8474251;27;20043;-58
2021/04/02 07:05:29;;;;;;;5.82;3.80;;;20.80;30.30;;;;;;8487893;27;20130;-58
2021/04/02 07:09:35;;;;;;;5.10;3.60;;;20.80;30.30;;;;;;8462943;28;20463;-57
2021/04/02 07:13:42;;;;;;;5.28;4.03;;;20.80;30.30;;;;;;8460174;28;20039;-57
2021/04/02 07:17:45;;;;;;;4.63;3.58;;;20.80;30.30;;;;;;8458016;27;20103;-59
2021/04/02 07:21:49;;;;;;;5.45;3.50;;;20.70;30.30;;;;;;8459664;28;20043;-58
2021/04/02 07:25:49;;;;;;;8.02;3.70;;;20.70;30.40;;;;;;8460382;28;20057;-58
2021/04/02 07:29:50;;;;;;;5.10;3.53;;;20.70;30.50;;;;;;8460928;28;20064;-58
2021/04/02 07:33:53;;;;;;;6.18;3.40;;;20.70;30.40;;;;;;8459613;28;20396;-58
2021/04/02 07:37:56;;;;;;;6.55;3.60;;;20.80;30.30;;;;;;8459181;28;20492;-58
2021/04/02 07:41:57;;;;;;;5.30;3.60;;;20.80;30.30;;;;;;8458299;27;20040;-58
2021/04/02 07:46:20;;;;;;;7.82;3.60;;;20.90;30.30;;;;;;8463529;28;20502;-60
2021/04/02 07:50:35;;;;;;;3.70;3.20;;;20.90;30.40;;;;;;8456218;28;20055;-59
2021/04/02 07:54:39;;;;;;;17.35;8.32;;;20.90;30.40;;;;;;8452449;28;20079;-59
2021/04/02 07:58:53;;;;;;;21.70;9.38;;;20.90;30.80;;;;;;8445306;28;20058;-59
2021/04/02 08:03:10;;;;;;;22.92;11.93;;;20.90;31.90;;;;;;8456454;28;20040;-56
2021/04/02 08:07:16;;;;;;;26.90;12.02;;;20.80;32.70;;;;;;8458757;28;20036;-55
2021/04/02 08:11:37;;;;;;;24.88;11.90;;;20.70;33.20;;;;;;8452708;28;20043;-54
2021/04/02 08:15:38;;;;;;;31.70;13.50;;;20.60;33.50;;;;;;8457858;28;20039;-58
2021/04/02 08:19:41;;;;;;;26.37;13.10;;;20.60;33.70;;;;;;8457768;28;20404;-53
2021/04/02 08:23:41;;;;;;;29.48;13.13;;;20.60;34.00;;;;;;8455668;28;20541;-57
2021/04/02 08:27:43;;;;;;;38.90;14.70;;;20.60;33.90;;;;;;8462219;28;20042;-55
2021/04/02 08:31:50;;;;;;;65.15;13.45;;;20.60;34.30;;;;;;8454968;28;20124;-51
2021/04/02 08:35:51;;;;;;;36.63;13.02;;;20.60;34.00;;;;;;8455175;28;20024;-48
2021/04/02 08:39:53;;;;;;;34.57;12.77;;;20.60;34.00;;;;;;8455862;27;20043;-50
2021/04/02 08:43:54;;;;;;;34.50;14.02;;;20.70;33.80;;;;;;8456834;28;20031;-53
2021/04/02 08:47:54;;;;;;;30.60;12.32;;;20.70;33.90;;;;;;8457838;28;20032;-49
2021/04/02 08:51:55;;;;;;;29.57;11.17;;;20.70;33.90;;;;;;8456450;28;20043;-49
2021/04/02 08:55:55;;;;;;;18.90;9.47;;;20.70;33.70;;;;;;8470608;28;20547;-49
2021/04/02 08:59:58;;;;;;;23.80;9.57;;;20.80;34.00;;;;;;8484366;28;20416;-50
2021/04/02 09:03:59;;;;;;;19.20;9.80;;;20.90;33.60;;;;;;8438928;28;20047;-50
2021/04/02 09:08:00;;;;;;;19.05;9.43;;;21.00;33.50;;;;;;8452123;28;20089;-54
2021/04/02 09:12:10;;;;;;;22.00;9.60;;;21.00;33.60;;;;;;8439588;28;20048;-55
2021/04/02 09:16:14;;;;;;;29.52;11.23;;;21.10;33.60;;;;;;8431921;28;20135;-53
2021/04/02 09:20:16;;;;;;;22.05;10.25;;;21.10;33.70;;;;;;8451430;28;20499;-50
2021/04/02 09:24:17;;;;;;;28.65;12.23;;;21.20;33.60;;;;;;8455938;28;20035;-52
2021/04/02 09:28:22;;;;;;;;;;;21.20;33.80;;;;;;8444699;28;20038;-52
2021/04/02 09:32:29;;;;;;;18.10;10.02;;;21.20;33.80;;;;;;8451058;28;20603;-53
2021/04/02 09:36:36;;;;;;;22.63;11.73;;;21.30;33.60;;;;;;8456560;28;20431;-54
2021/04/02 09:40:37;;;;;;;23.50;11.55;;;21.30;33.80;;;;;;8460131;28;20035;-56
2021/04/02 09:44:38;;;;;;;20.00;9.93;;;21.30;33.60;;;;;;8454011;28;20047;-51
2021/04/02 09:48:39;;;;;;;19.42;9.63;;;21.40;33.50;;;;;;8456287;28;20104;-49
2021/04/02 09:52:41;;;;;;;18.70;9.80;;;21.40;33.60;;;;;;8455083;27;20088;-54
2021/04/02 09:56:42;;;;;;;19.15;10.13;;;21.40;33.50;;;;;;8454077;28;20027;-55
2021/04/02 10:00:43;;;;;;;21.80;9.93;;;21.50;33.80;;;;;;8460704;28;20098;-55
2021/04/02 10:04:44;;;;;;;20.60;10.37;;;21.50;33.70;;;;;;8455134;28;20046;-52
2021/04/02 10:08:45;;;;;;;21.13;10.32;;;21.60;33.80;;;;;;8448320;28;20040;-50
2021/04/02 10:12:46;;;;;;;18.92;9.40;;;21.60;33.70;;;;;;8460232;27;20166;-54
2021/04/02 10:16:46;;;;;;;18.97;8.63;;;21.70;33.60;;;;;;8494254;27;20060;-52
2021/04/02 10:20:47;;;;;;;18.95;9.43;;;21.70;33.60;;;;;;8458180;27;20047;-52
2021/04/02 10:24:48;;;;;;;19.90;10.27;;;21.70;34.10;;;;;;8454831;28;20404;-54
2021/04/02 10:28:49;;;;;;;23.37;11.10;;;21.80;33.40;;;;;;8431108;28;20162;-52
2021/04/02 10:32:49;;;;;;;18.95;9.90;;;21.80;33.40;;;;;;8458203;28;20027;-53
2021/04/02 10:36:50;;;;;;;18.47;11.10;;;21.90;33.40;;;;;;8449617;28;20076;-55
2021/04/02 10:40:51;;;;;;;19.33;9.77;;;21.90;33.40;;;;;;8454551;28;20134;-51
2021/04/02 10:44:52;;;;;;;19.88;10.35;;;21.90;33.40;;;;;;8452586;28;20043;-52
2021/04/02 10:48:52;;;;;;;20.00;10.27;;;22.00;33.50;;;;;;8453988;28;20424;-49
2021/04/02 10:52:53;;;;;;;17.47;9.80;;;22.00;33.20;;;;;;8459007;28;20036;-54
2021/04/02 10:56:54;;;;;;;19.20;9.45;;;22.00;33.20;;;;;;8452673;28;20031;-56
2021/04/02 11:00:55;;;;;;;18.77;8.77;;;22.10;33.20;;;;;;8453744;28;20035;-54
2021/04/02 11:04:58;;;;;;;18.80;10.13;;;22.10;33.20;;;;;;8424079;28;20440;-53
2021/04/02 11:08:58;;;;;;;16.38;9.27;;;22.10;33.30;;;;;;8422862;28;20212;-55
2021/04/02 11:12:59;;;;;;;18.57;8.70;;;22.10;33.20;;;;;;8450694;28;20070;-55
2021/04/02 11:16:59;;;;;;;22.60;11.03;;;22.10;33.30;;;;;;8452909;28;20070;-55
2021/04/02 11:21:00;;;;;;;20.23;10.33;;;22.20;33.30;;;;;;8450789;28;20028;-56
2021/04/02 11:25:01;;;;;;;24.33;12.13;;;22.20;33.30;;;;;;8455046;28;20035;-55
2021/04/02 11:29:02;;;;;;;24.47;10.80;;;22.20;33.40;;;;;;8428292;28;20048;-54
2021/04/02 11:33:03;;;;;;;19.33;10.13;;;22.20;33.30;;;;;;8428653;27;20062;-52
2021/04/02 11:37:07;;;;;;;25.08;10.40;;;22.30;33.40;;;;;;8387040;27;20035;-49
2021/04/02 11:41:07;;;;;;;20.30;10.13;;;22.30;33.30;;;;;;8448362;28;20076;-48
2021/04/02 11:45:09;;;;;;;22.37;11.07;;;22.20;33.30;;;;;;8456698;28;20031;-50
2021/04/02 11:49:10;;;;;;;28.13;10.57;;;22.20;33.30;;;;;;8446823;27;20384;-49
2021/04/02 11:53:10;;;;;;;18.37;8.63;;;22.20;33.30;;;;;;8448761;28;20411;-49
2021/04/02 11:57:11;;;;;;;16.73;9.17;;;22.20;33.10;;;;;;8434823;28;20032;-48
2021/04/02 12:01:11;;;;;;;15.87;7.70;;;22.20;33.30;;;;;;8454991;27;20039;-48
2021/04/02 12:05:13;;;;;;;17.13;9.70;;;22.20;33.30;;;;;;8440238;28;20063;-50
2021/04/02 12:09:14;;;;;;;25.48;9.95;;;22.30;33.40;;;;;;8429740;28;20509;-56
2021/04/02 12:13:14;;;;;;;17.83;8.53;;;22.30;33.60;;;;;;8441190;28;20362;-53
2021/04/02 12:17:15;;;;;;;15.83;7.57;;;22.40;33.40;;;;;;8418731;28;20396;-50
2021/04/02 12:21:16;;;;;;;15.47;6.60;;;22.50;33.20;;;;;;8450947;28;20564;-49
2021/04/02 12:25:17;;;;;;;11.65;6.25;;;22.60;33.30;;;;;;8477296;27;20614;-51
2021/04/02 12:29:17;;;;;;;14.07;6.00;;;22.70;33.70;;;;;;8467584;28;20055;-53
2021/04/02 12:33:18;;;;;;;11.73;6.00;;;22.70;33.70;;;;;;8451728;28;20270;-51
2021/04/02 12:37:18;;;;;;;12.88;6.20;;;22.80;33.90;;;;;;8456224;28;20032;-53
2021/04/02 12:41:19;;;;;;;11.93;5.33;;;22.80;33.70;;;;;;8449071;28;20036;-50
2021/04/02 12:45:20;;;;;;;13.30;5.53;;;22.90;33.80;;;;;;8451625;28;20150;-52
2021/04/02 12:49:20;;;;;;;13.63;6.13;;;22.90;33.60;;;;;;8450444;28;20059;-50
2021/04/02 12:53:21;;;;;;;16.27;6.60;;;22.90;33.80;;;;;;8454052;28;20127;-47
2021/04/02 12:57:21;;;;;;;15.40;5.87;;;22.90;33.60;;;;;;8451484;28;20434;-50
2021/04/02 13:01:23;;;;;;;13.43;5.70;;;22.90;33.40;;;;;;8445457;28;20450;-49
2021/04/02 13:05:24;;;;;;;10.35;5.70;;;22.80;33.30;;;;;;8451536;27;20060;-50
2021/04/02 13:09:25;;;;;;;11.57;4.78;;;22.80;33.10;;;;;;8465275;27;20627;-47
2021/04/02 13:13:25;;;;;;;11.03;5.13;;;22.80;32.90;;;;;;8461766;28;20040;-49
2021/04/02 13:17:26;;;;;;;9.03;5.10;;;22.80;33.00;;;;;;8481993;27;20467;-47
2021/04/02 13:21:26;;;;;;;12.07;5.73;;;22.80;32.80;;;;;;8474061;27;20040;-49
2021/04/02 13:25:31;;;;;;;15.97;5.00;;;22.80;32.60;;;;;;8447149;28;20035;-48
2021/04/02 13:29:31;;;;;;;8.93;4.68;;;22.80;32.80;;;;;;8457481;28;20042;-46
2021/04/02 13:33:34;;;;;;;10.60;5.37;;;22.80;32.90;;;;;;8454499;28;20119;-49
2021/04/02 13:37:34;;;;;;;14.55;4.82;;;22.80;32.80;;;;;;8454385;28;20036;-46
2021/04/02 13:41:36;;;;;;;13.53;4.80;;;22.80;32.90;;;;;;8453460;28;20480;-46
2021/04/02 13:45:36;;;;;;;7.75;4.18;;;22.80;32.90;;;;;;8453755;27;20266;-45
2021/04/02 13:49:37;;;;;;;9.90;5.07;;;22.80;32.90;;;;;;8458639;28;20092;-47
2021/04/02 13:53:39;;;;;;;12.30;5.30;;;22.80;32.60;;;;;;8451480;28;20258;-48
2021/04/02 13:57:40;;;;;;;9.48;4.63;;;22.90;33.30;;;;;;8452991;28;20035;-48
2021/04/02 14:01:40;;;;;;;13.27;4.57;;;22.90;33.40;;;;;;8457376;28;20067;-47
2021/04/02 14:05:41;;;;;;;7.37;4.20;;;22.90;33.60;;;;;;8459429;28;20157;-47
2021/04/02 14:09:41;;;;;;;14.13;4.85;;;22.90;33.00;;;;;;8453639;27;20113;-48
2021/04/02 14:13:42;;;;;;;15.43;4.70;;;22.90;33.20;;;;;;8453092;28;20036;-46
2021/04/02 14:17:43;;;;;;;11.67;4.63;;;22.90;33.20;;;;;;8450621;27;20071;-48
2021/04/02 14:21:43;;;;;;;10.95;4.78;;;22.90;33.20;;;;;;8457868;28;20031;-48
2021/04/02 14:25:44;;;;;;;6.13;3.95;;;22.90;33.00;;;;;;8452992;28;20039;-50
2021/04/02 14:29:44;;;;;;;8.87;4.00;;;22.90;32.80;;;;;;8450030;28;20072;-50
2021/04/02 14:33:45;;;;;;;11.43;5.07;;;22.90;32.80;;;;;;8452070;28;20288;-50
2021/04/02 14:37:47;;;;;;;12.93;4.88;;;22.90;32.80;;;;;;8451264;28;20389;-47
2021/04/02 14:41:47;;;;;;;;;;;22.90;32.80;;;;;;8454717;28;20038;-48
2021/04/02 14:45:48;;;;;;;19.93;4.40;;;22.90;32.70;;;;;;8451456;28;20318;-47
2021/04/02 14:49:48;;;;;;;19.47;5.03;;;22.90;32.70;;;;;;8452749;27;20365;-46
2021/04/02 14:53:49;;;;;;;13.00;4.17;;;22.90;32.70;;;;;;8441532;28;20123;-46
2021/04/02 14:57:50;;;;;;;11.05;4.65;;;22.90;32.60;;;;;;8458062;28;20039;-46
2021/04/02 15:01:50;;;;;;;8.33;3.47;;;22.90;32.70;;;;;;8454024;27;20126;-46
2021/04/02 15:05:51;;;;;;;10.83;3.77;;;23.00;32.60;;;;;;8449686;28;20057;-46
2021/04/02 15:09:51;;;;;;;11.10;4.10;;;22.90;32.60;;;;;;8452630;28;20051;-47
2021/04/02 15:13:52;;;;;;;9.33;4.23;;;23.00;32.60;;;;;;8454887;28;20040;-49
2021/04/02 15:17:53;;;;;;;9.80;3.50;;;23.00;32.40;;;;;;8453465;27;20046;-47
2021/04/02 15:21:53;;;;;;;14.57;4.30;;;23.00;32.10;;;;;;8446845;28;20074;-47
2021/04/02 15:25:54;;;;;;;11.47;3.73;;;23.00;32.10;;;;;;8453319;28;20788;-48
2021/04/02 15:29:57;;;;;;;6.30;3.23;;;23.00;32.00;;;;;;8449691;28;20050;-48
2021/04/02 15:33:58;;;;;;;4.80;3.67;;;23.00;31.80;;;;;;8457421;28;20442;-47
2021/04/02 15:38:17;;;;;;;8.27;3.20;;;23.00;32.30;;;;;;8441729;27;20043;-48
2021/04/02 15:42:17;;;;;;;12.68;3.42;;;23.00;31.60;;;;;;8448047;28;20039;-48
2021/04/02 15:46:18;;;;;;;11.48;3.70;;;23.00;31.50;;;;;;8450915;27;20065;-47
2021/04/02 15:50:20;;;;;;;15.38;3.95;;;23.00;31.40;;;;;;8451442;28;20054;-48
2021/04/02 15:54:21;;;;;;;6.93;3.00;;;23.00;31.40;;;;;;8455591;28;20047;-47
2021/04/02 15:58:21;;;;;;;8.83;3.40;;;23.00;31.30;;;;;;8447811;27;20039;-47
2021/04/02 16:02:22;;;;;;;10.13;3.87;;;23.00;31.40;;;;;;8448429;28;20092;-48
2021/04/02 16:06:22;;;;;;;13.40;3.83;;;23.00;31.30;;;;;;8451962;28;20504;-47
2021/04/02 16:10:26;;;;;;;10.67;3.50;;;22.90;31.20;;;;;;8440515;28;20083;-51
2021/04/02 16:14:26;;;;;;;7.05;2.90;;;22.90;31.20;;;;;;8427161;28;20545;-47
2021/04/02 16:18:27;;;;;;;8.47;3.47;;;22.90;31.10;;;;;;8450161;27;20038;-53
2021/04/02 16:22:27;;;;;;;9.93;3.13;;;22.80;29.90;;;;;;8449600;27;20530;-54
2021/04/02 16:26:28;;;;;;;12.73;3.53;;;22.80;30.10;;;;;;8460500;27;20061;-52
2021/04/02 16:30:29;;;;;;;8.82;2.85;;;23.00;30.20;;;;;;8450592;28;20043;-52
2021/04/02 16:34:29;;;;;;;9.17;2.97;;;23.10;30.50;;;;;;8457472;28;20035;-54
2021/04/02 16:38:30;;;;;;;6.95;3.03;;;23.20;30.60;;;;;;8454947;27;20511;-54
2021/04/02 16:42:31;;;;;;;9.02;3.42;;;23.30;30.70;;;;;;8478846;27;20114;-51
2021/04/02 16:46:31;;;;;;;13.40;3.30;;;23.40;31.00;;;;;;8439048;28;20036;-54
2021/04/02 16:50:33;;;;;;;7.40;3.00;;;23.40;31.10;;;;;;8440927;27;20047;-56
2021/04/02 16:54:33;;;;;;;8.00;2.85;;;23.40;31.50;;;;;;8457046;28;20067;-54
2021/04/02 16:58:34;;;;;;;15.13;4.07;;;23.50;31.30;;;;;;8457071;28;20488;-53
2021/04/02 17:02:35;;;;;;;6.65;3.35;;;23.60;31.20;;;;;;8454933;28;20032;-55
2021/04/02 17:06:35;;;;;;;11.35;3.10;;;23.70;31.40;;;;;;8453818;28;20035;-53
2021/04/02 17:10:36;;;;;;;9.15;3.20;;;23.80;31.10;;;;;;8457174;28;20043;-54
2021/04/02 17:14:36;;;;;;;14.43;3.65;;;23.80;31.50;;;;;;8445534;27;20051;-55
2021/04/02 17:18:37;;;;;;;8.80;3.03;;;23.90;31.50;;;;;;8460857;28;20400;-53
2021/04/02 17:22:39;;;;;;;13.35;3.15;;;23.90;31.60;;;;;;8453375;28;20036;-54
2021/04/02 17:26:40;;;;;;;10.20;3.20;;;24.00;32.00;;;;;;8447810;28;20043;-53
2021/04/02 17:30:40;;;;;;;17.53;5.57;;;24.10;32.40;;;;;;8447471;28;20044;-52
2021/04/02 17:34:41;;;;;;;20.00;7.40;;;24.10;32.30;;;;;;8458714;27;22946;-54
2021/04/02 17:38:42;;;;;;;24.65;9.13;;;24.10;32.10;;;;;;8464769;27;20586;-53
2021/04/02 17:42:43;;;;;;;26.05;8.45;;;24.20;32.20;;;;;;8429247;28;20032;-50
2021/04/02 17:46:43;;;;;;;29.52;8.45;;;24.30;32.20;;;;;;8442160;27;20023;-52
2021/04/02 17:50:44;;;;;;;33.95;11.85;;;24.30;32.20;;;;;;8449248;28;20122;-52
2021/04/02 17:54:48;;;;;;;26.38;8.68;;;24.30;32.30;;;;;;8456084;28;20031;-56
2021/04/02 17:58:48;;;;;;;34.58;9.18;;;24.30;32.20;;;;;;8439433;28;20039;-53
2021/04/02 18:02:49;;;;;;;30.93;8.33;;;24.30;32.30;;;;;;8446075;27;20476;-54
2021/04/02 18:06:50;;;;;;;21.50;6.90;;;24.30;31.00;;;;;;8439577;28;20055;-55
2021/04/02 18:10:50;;;;;;;23.47;7.17;;;24.20;31.50;;;;;;8425589;28;20055;-56
2021/04/02 18:14:51;;;;;;;15.07;5.40;;;24.20;31.40;;;;;;8456127;28;20274;-56
2021/04/02 18:18:52;;;;;;;18.27;5.10;;;24.30;31.50;;;;;;8454906;28;20056;-54
2021/04/02 18:22:58;;;;;;;20.48;5.90;;;24.40;31.40;;;;;;8454983;27;20042;-52
2021/04/02 18:26:59;;;;;;;19.83;5.70;;;24.40;31.30;;;;;;8452515;28;20044;-52
2021/04/02 18:30:59;;;;;;;13.15;5.43;;;24.50;31.60;;;;;;8459445;28;20067;-53
2021/04/02 18:35:00;;;;;;;13.05;5.68;;;24.50;31.60;;;;;;8453911;28;20040;-54
2021/04/02 18:39:00;;;;;;;17.80;4.47;;;24.50;31.70;;;;;;8452813;28;20042;-55
2021/04/02 18:43:01;;;;;;;22.60;5.13;;;24.50;31.90;;;;;;8443258;28;20277;-56
2021/04/02 18:47:03;;;;;;;17.70;5.35;;;24.60;32.00;;;;;;8443889;28;20201;-53
2021/04/02 18:51:04;;;;;;;8.55;3.97;;;24.60;31.90;;;;;;8451949;27;20050;-51
2021/04/02 18:55:06;;;;;;;9.25;3.40;;;24.40;29.50;;;;;;8453746;28;20032;-53
2021/04/02 18:59:07;;;;;;;7.28;3.22;;;24.10;29.20;;;;;;8448598;27;20035;-53
2021/04/02 19:03:07;;;;;;;14.47;3.60;;;24.10;30.20;;;;;;8437217;27;20031;-53
2021/04/02 19:07:09;;;;;;;12.07;2.80;;;24.10;30.00;;;;;;8458172;27;20043;-53
2021/04/02 19:11:09;;;;;;;4.93;2.72;;;24.20;30.20;;;;;;8447252;28;20108;-56
2021/04/02 19:15:12;;;;;;;5.47;2.80;;;24.30;30.20;;;;;;8434784;28;20040;-57
2021/04/02 19:19:12;;;;;;;10.73;2.97;;;24.40;30.60;;;;;;8444018;27;20035;-56
2021/04/02 19:23:13;;;;;;;7.35;3.00;;;24.50;30.80;;;;;;8466226;27;20035;-56
2021/04/02 19:27:13;;;;;;;6.15;3.03;;;24.50;30.80;;;;;;8460496;27;20039;-56
2021/04/02 19:31:14;;;;;;;8.55;2.85;;;24.60;31.00;;;;;;8454044;27;20489;-56
2021/04/02 19:35:15;;;;;;;4.75;2.67;;;24.60;31.00;;;;;;8433921;28;20032;-56
2021/04/02 19:39:16;;;;;;;5.25;2.53;;;24.70;31.00;;;;;;8421309;28;20036;-54
2021/04/02 19:43:17;;;;;;;8.43;2.73;;;24.70;31.20;;;;;;8435724;27;20055;-56
2021/04/02 19:47:18;;;;;;;4.82;2.65;;;24.70;31.10;;;;;;8456003;27;20289;-54
2021/04/02 19:51:18;;;;;;;16.73;2.90;;;24.70;31.00;;;;;;8451539;27;20040;-56
2021/04/02 19:55:19;;;;;;;11.88;2.50;;;24.70;31.20;;;;;;8449592;27;20330;-54
2021/04/02 19:59:20;;;;;;;8.85;2.70;;;24.70;31.20;;;;;;8472202;27;20059;-57
2021/04/02 20:03:21;;;;;;;9.45;2.75;;;24.70;31.40;;;;;;8458175;27;20043;-56
2021/04/02 20:07:21;;;;;;;10.18;2.80;;;24.70;31.70;;;;;;8457714;28;20039;-56
2021/04/02 20:11:23;;;;;;;7.27;2.20;;;24.70;31.80;;;;;;8455481;27;20044;-56
2021/04/02 20:15:23;;;;;;;3.92;2.22;;;24.70;31.60;;;;;;8431146;28;20274;-56
2021/04/02 20:19:24;;;;;;;7.00;2.20;;;24.70;31.60;;;;;;8442181;27;20470;-54
2021/04/02 20:23:25;;;;;;;5.55;2.75;;;24.60;31.00;;;;;;8446789;27;20063;-56
2021/04/02 20:27:26;;;;;;;8.63;2.40;;;24.50;31.30;;;;;;8462214;28;20081;-53
2021/04/02 20:31:27;;;;;;;4.10;2.05;;;24.50;31.10;;;;;;8456736;28;20170;-54
2021/04/02 20:35:27;;;;;;;4.13;2.00;;;24.50;30.80;;;;;;8456202;27;21469;-54
2021/04/02 20:39:28;;;;;;;5.10;2.45;;;24.50;30.70;;;;;;8459289;28;20265;-56
2021/04/02 20:43:28;;;;;;;4.25;2.17;;;24.50;30.70;;;;;;8461553;28;20020;-55
2021/04/02 20:47:29;;;;;;;5.57;2.60;;;24.40;30.60;;;;;;8456372;28;20126;-55
2021/04/02 20:51:30;;;;;;;9.45;2.70;;;24.30;30.50;;;;;;8457529;28;20089;-55
2021/04/02 20:55:31;;;;;;;6.20;2.27;;;24.30;30.50;;;;;;8462235;27;20387;-55